• Join FlightAware (Why Join?)
  • Login
  • US Flag 
06:13AM EDT


 

Airport Tracker/Info


-or-


 

Live Flight TrackerFlight Track Log ✈ UAL6044 ✈ 02-May-2013 ✈ KMCI - KORD

Flight Track Log - Related Links

Times and Time Zones

All times are in EDT time to prevent confusion due to time zone crossing. See the UAL6044 flight status page for this flight to view local times or setup timezone preferences in your user account.

Time Position Orientation Groundspeed Altitude Reporting Facility
EDT Latitude Longitude Course Direction KTS MPH feet Rate Location/Type
09:03AM 39.3167 -94.7167 21° North 136 157 1,700  Level Kansas City TRACON
09:04AM 39.3500 -94.7000 21° North 158 182 3,500 1,560 Climbing Kansas City TRACON
09:05AM 39.3553 -94.6917 51° Northeast 164 189 3,700 1,680 Climbing Kansas City Center
09:06AM 39.3742 -94.6181 72° East 226 260 5,700 1,800 Climbing Kansas City Center
09:07AM 39.4061 -94.5406 62° Northeast 263 303 7,400 1,620 Climbing Kansas City Center
09:08AM 39.4778 -94.4600 41° Northeast 310 357 9,100 1,740 Climbing Kansas City Center
09:09AM 39.5436 -94.3864 41° Northeast 324 373 11,000 1,860 Climbing Kansas City Center
09:10AM 39.6100 -94.3114 41° Northeast 329 379 13,000 2,100 Climbing Kansas City Center
09:11AM 39.6850 -94.2242 42° Northeast 324 373 15,300 1,620 Climbing Kansas City Center
09:12AM 39.7500 -94.1453 43° Northeast 334 384 16,400 1,020 Climbing Kansas City Center
09:13AM 39.8239 -94.0536 44° Northeast 370 426 17,400 780 Climbing Kansas City Center
09:14AM 39.9036 -93.9581 43° Northeast 389 448 18,000 780 Climbing Kansas City Center
09:15AM 39.9764 -93.8500 49° Northeast 404 465 19,000 1,020 Climbing Kansas City Center
09:16AM 40.0181 -93.6833 72° East 407 468 20,200 1,080 Climbing Kansas City Center
09:17AM 40.0539 -93.5397 72° East 415 478 21,300 1,020 Climbing Kansas City Center
09:18AM 40.0892 -93.3939 72° East 422 486 22,300 960 Climbing Kansas City Center
09:19AM 40.1258 -93.2469 72° East 427 491 23,300 960 Climbing Kansas City Center
09:20AM 40.1617 -93.0986 72° East 432 497 24,300 960 Climbing Kansas City Center
09:21AM 40.1992 -92.9369 73° East 422 486 25,300 960 Climbing Kansas City Center
09:22AM 40.2350 -92.7950 72° East 427 491 26,300 1,020 Climbing Kansas City Center
09:23AM 40.2731 -92.6317 73° East 422 486 27,400 1,020 Climbing Kansas City Center
09:24AM 40.3044 -92.4911 74° East 420 483 28,400 900 Climbing Kansas City Center
09:25AM 40.3400 -92.3475 72° East 426 490 29,300 900 Climbing Kansas City Center
09:26AM 40.3711 -92.2103 73° East 419 482 30,300 780 Climbing Kansas City Center
09:27AM 40.4106 -92.0364 73° East 417 480 31,000 300 Climbing Kansas City Center
09:28AM 40.4456 -91.8819 73° East 436 502 31,000  Level Kansas City Center
09:29AM 40.4825 -91.7228 73° East 454 522 31,000  Level Kansas City Center
09:30AM 40.5186 -91.5592 74° East 465 535 31,000  Level Kansas City Center
09:31AM 40.5556 -91.4017 73° East 459 528 31,000  Level Kansas City Center
09:32AM 40.6103 -91.2386 66° East 450 518 31,000  Level Chicago Center
09:33AM 40.6617 -91.0894 66° East 447 514 31,000  Level Chicago Center
09:34AM 40.7117 -90.9411 66° East 444 511 31,000  Level Chicago Center
09:35AM 40.7628 -90.7931 65° Northeast 442 509 31,000  Level Chicago Center
09:36AM 40.8119 -90.6433 67° East 443 510 31,000 -60 Level Chicago Center
09:38AM 40.8717 -90.4664 66° East 439 505 30,900 -540 Descending Chicago Center
09:39AM 40.9217 -90.3181 66° East 440 506 30,000 -900 Descending Chicago Center
09:40AM 40.9683 -90.1800 66° East 428 493 29,100 -960 Descending Chicago Center
09:41AM 41.0161 -90.0289 67° East 421 484 28,100 -1,020 Descending Chicago Center
09:42AM 41.0636 -89.8886 66° East 415 478 27,000 -1,500 Descending Chicago Center
09:43AM 41.1089 -89.7503 66° East 407 468 25,000 -1,500 Descending Chicago Center
09:44AM 41.1517 -89.6161 67° East 397 457 24,000 -840 Descending Chicago Center
09:45AM 41.2033 -89.4853 62° Northeast 398 458 23,300 -1,560 Descending Chicago Center
09:46AM 41.2664 -89.3272 62° Northeast 403 464 20,800 -2,280 Descending Chicago Center
09:47AM 41.3183 -89.2006 61° Northeast 392 451 18,600 -2,160 Descending Chicago Center
09:48AM 41.3714 -89.0683 62° Northeast 380 437 16,400 -2,280 Descending Chicago Center
09:49AM 41.4186 -88.9492 62° Northeast 369 425 14,000 -2,100 Descending Chicago Center
09:50AM 41.4628 -88.8375 62° Northeast 347 399 12,100 -1,500 Descending Chicago Center
09:51AM 41.5042 -88.7339 62° Northeast 325 374 11,000 -540 Descending Chicago Center
09:52AM 41.5406 -88.6375 63° Northeast 300 345 11,000  Level Chicago Center
09:53AM 41.5800 -88.5369 62° Northeast 304 350 11,000  Level Chicago Center
09:54AM 41.6297 -88.4222 60° Northeast 299 344 11,100 -540 Climbing Chicago Center
09:55AM 41.6508 -88.3194 75° East 290 334 9,900 -1,260 Descending Chicago Center
09:56AM 41.6725 -88.2325 72° East 257 296 8,500 -1,260 Descending Chicago Center
09:57AM 41.7158 -88.1767 44° Northeast 224 258 7,400 -1,320 Descending Chicago Center
09:58AM 41.7600 -88.1292 39° Northeast 209 241 5,800 -1,260 Descending Chicago Center
09:59AM 41.7994 -88.0806 43° Northeast 200 230 4,900 -1,140 Descending Chicago Center
10:00AM 41.8461 -88.0258 41° Northeast 193 222 3,500 -1,200 Descending Chicago Center
10:01AM 41.8833 -87.9833 40° Northeast 177 204 2,700 -900 Descending Chicago TRACON
10:02AM 41.9167 -87.9500 37° Northeast 155 178 1,900 -780 Descending Chicago TRACON
10:03AM 41.9333 -87.9167 56° Northeast 122 140 1,200 -720 Descending Chicago TRACON
10:05AM 41.9667 -87.9000 37° Northeast  Level FlightAware Approximate
10:12AM 41.9817 -87.9067 37° Northeast  Level Estimated